PWSweather.com
Personal Weather Stations
Station Observations
ISARDEGN48
BittiIT 08021

BittiIT 08021

Lat: 40.4805, Lon: 9.3887

Elevation: 1804

Station Type: La Crosse WS2355

http://meteobitti.altervista.org

Latest ConditionsUpdated 7:25:00 AM GMT+01:01 Saturday, Jan 18, 2020
Currently Today's Max Today's Min Today's Average
Temperature 45.5°F7.5°C 48.9°F9.4°C 45.3°F7.4°C 46.4°F8.0°C
Dew Point 38.7°F3.7°C 45.3°F7.4°C 38.5°F3.6°C 41.3°F5.2°C
Winds 3.8 mph ESE6.1 kmh ESE 18.8 mph -30.3 kmh - - 7.4 mph 11.9 kmh
Wind Gusts 13.0 mph20.9 kmh 26.2 mph42.2 kmh - -
Humidity 77% 88% 77% 82%
Pressure 30.05 in1017.6 mb 30.08 in1018.6 mb 30.05 in1017.6 mb -
Precipitation - 0.04 in1.0 mm - -
Hour Temp Dew Point Humidity Winds Wind Gusts Pressure Precip Precip Rate Daily Precip Total
07:25 AM 45.5°F7.5°C 38.7°F3.7°C 77% 3.8 mph ESE6.1 kmh ESE 13.0 mph20.9 kmh 30.05 in1017.6 mb 0.00 in0.0 mm 0.00 in0.0 mm 0.04 in1.0 mm
07:20 AM 45.5°F7.5°C 38.7°F3.7°C 77% 2.0 mph S3.2 kmh S 15.7 mph25.3 kmh 30.05 in1017.6 mb 0.00 in0.0 mm 0.00 in0.0 mm 0.04 in1.0 mm
07:15 AM 45.3°F7.4°C 38.5°F3.6°C 77% 4.5 mph SSE7.2 kmh SSE 19.5 mph31.4 kmh 30.05 in1017.6 mb 0.00 in0.0 mm 0.00 in0.0 mm 0.04 in1.0 mm
07:10 AM 45.3°F7.4°C 38.9°F3.8°C 78% 5.6 mph E9.0 kmh E 19.5 mph31.4 kmh 30.06 in1017.9 mb 0.00 in0.0 mm 0.00 in0.0 mm 0.04 in1.0 mm
07:05 AM 45.3°F7.4°C 38.9°F3.8°C 78% 1.8 mph SSE2.9 kmh SSE 12.8 mph20.6 kmh 30.05 in1017.6 mb 0.00 in0.0 mm 0.00 in0.0 mm 0.04 in1.0 mm
07:00 AM 45.3°F7.4°C 38.9°F3.8°C 78% 3.1 mph S5.0 kmh S 12.8 mph20.6 kmh 30.05 in1017.6 mb 0.00 in0.0 mm 0.00 in0.0 mm 0.04 in1.0 mm
06:55 AM 45.3°F7.4°C 39.2°F4.0°C 79% 5.8 mph S9.3 kmh S 11.9 mph19.2 kmh 30.05 in1017.6 mb 0.00 in0.0 mm 0.00 in0.0 mm 0.04 in1.0 mm
06:50 AM 45.5°F7.5°C 39.4°F4.1°C 79% 5.8 mph SSW9.3 kmh SSW 10.5 mph16.9 kmh 30.05 in1017.6 mb 0.00 in0.0 mm 0.00 in0.0 mm 0.04 in1.0 mm
06:45 AM 45.5°F7.5°C 39.4°F4.1°C 79% Calm Calm 10.3 mph16.6 kmh 30.05 in1017.6 mb 0.00 in0.0 mm 0.00 in0.0 mm 0.04 in1.0 mm
06:40 AM 45.5°F7.5°C 39.4°F4.1°C 79% Calm Calm 10.3 mph16.6 kmh 30.05 in1017.6 mb 0.00 in0.0 mm 0.00 in0.0 mm 0.04 in1.0 mm
06:35 AM 45.7°F7.6°C 39.6°F4.2°C 79% 4.7 mph S7.6 kmh S 13.2 mph21.2 kmh 30.05 in1017.6 mb 0.00 in0.0 mm 0.00 in0.0 mm 0.04 in1.0 mm
06:30 AM 45.7°F7.6°C 39.2°F4.0°C 78% 3.1 mph S5.0 kmh S 19.2 mph30.9 kmh 30.05 in1017.6 mb 0.00 in0.0 mm 0.00 in0.0 mm 0.04 in1.0 mm
06:25 AM 45.7°F7.6°C 39.6°F4.2°C 79% 3.8 mph S6.1 kmh S 19.2 mph30.9 kmh 30.05 in1017.6 mb 0.00 in0.0 mm 0.00 in0.0 mm 0.04 in1.0 mm
06:20 AM 45.5°F7.5°C 39.4°F4.1°C 79% 11.2 mph S18.0 kmh S 16.6 mph26.7 kmh 30.05 in1017.6 mb 0.00 in0.0 mm 0.00 in0.0 mm 0.04 in1.0 mm
06:15 AM 45.5°F7.5°C 39.4°F4.1°C 79% 1.6 mph S2.6 kmh S 18.6 mph29.9 kmh 30.05 in1017.6 mb 0.00 in0.0 mm 0.00 in0.0 mm 0.04 in1.0 mm
06:10 AM 45.5°F7.5°C 39.4°F4.1°C 79% 13.0 mph S20.9 kmh S 19.7 mph31.7 kmh 30.05 in1017.6 mb 0.00 in0.0 mm 0.00 in0.0 mm 0.04 in1.0 mm
06:05 AM 45.5°F7.5°C 39.4°F4.1°C 79% 2.0 mph S3.2 kmh S 19.7 mph31.7 kmh 30.05 in1017.6 mb 0.00 in0.0 mm 0.00 in0.0 mm 0.04 in1.0 mm
06:00 AM 45.5°F7.5°C 39.4°F4.1°C 79% 12.3 mph S19.8 kmh S 21.9 mph35.2 kmh 30.05 in1017.6 mb 0.00 in0.0 mm 0.00 in0.0 mm 0.04 in1.0 mm
05:55 AM 45.5°F7.5°C 39.4°F4.1°C 79% 11.6 mph S18.7 kmh S 21.9 mph35.2 kmh 30.05 in1017.6 mb 0.00 in0.0 mm 0.00 in0.0 mm 0.04 in1.0 mm
05:50 AM 45.5°F7.5°C 39.4°F4.1°C 79% 18.6 mph SSW29.9 kmh SSW 21.7 mph34.9 kmh 30.05 in1017.6 mb 0.00 in0.0 mm 0.00 in0.0 mm 0.04 in1.0 mm
05:45 AM 45.7°F7.6°C 39.6°F4.2°C 79% 8.3 mph S13.4 kmh S 20.8 mph33.5 kmh 30.05 in1017.6 mb 0.00 in0.0 mm 0.00 in0.0 mm 0.04 in1.0 mm
05:40 AM 45.7°F7.6°C 39.6°F4.2°C 79% 17.9 mph SSW28.8 kmh SSW 25.1 mph40.4 kmh 30.05 in1017.6 mb 0.00 in0.0 mm 0.00 in0.0 mm 0.04 in1.0 mm
05:35 AM 45.7°F7.6°C 39.6°F4.2°C 79% 11.4 mph SSW18.3 kmh SSW 25.1 mph40.4 kmh 30.06 in1017.9 mb 0.00 in0.0 mm 0.00 in0.0 mm 0.04 in1.0 mm
05:30 AM 45.7°F7.6°C 39.6°F4.2°C 79% 14.3 mph S23.0 kmh S 18.8 mph30.3 kmh 30.06 in1017.9 mb 0.00 in0.0 mm 0.00 in0.0 mm 0.04 in1.0 mm
05:25 AM 45.7°F7.6°C 39.6°F4.2°C 79% 13.2 mph S21.2 kmh S 18.1 mph29.1 kmh 30.06 in1017.9 mb 0.00 in0.0 mm 0.00 in0.0 mm 0.04 in1.0 mm
05:20 AM 45.7°F7.6°C 39.6°F4.2°C 79% 1.8 mph SSW2.9 kmh SSW 14.5 mph23.3 kmh 30.06 in1017.9 mb 0.00 in0.0 mm 0.00 in0.0 mm 0.04 in1.0 mm
05:15 AM 45.7°F7.6°C 39.6°F4.2°C 79% 1.3 mph S2.1 kmh S 14.5 mph23.3 kmh 30.06 in1017.9 mb 0.00 in0.0 mm 0.00 in0.0 mm 0.04 in1.0 mm
05:10 AM 45.7°F7.6°C 39.6°F4.2°C 79% 5.6 mph S9.0 kmh S 18.6 mph29.9 kmh 30.06 in1017.9 mb 0.00 in0.0 mm 0.00 in0.0 mm 0.04 in1.0 mm
05:05 AM 45.7°F7.6°C 39.6°F4.2°C 79% 8.5 mph S13.7 kmh S 18.6 mph29.9 kmh 30.06 in1017.9 mb 0.00 in0.0 mm 0.00 in0.0 mm 0.04 in1.0 mm
05:00 AM 45.7°F7.6°C 39.6°F4.2°C 79% 18.6 mph S29.9 kmh S 18.8 mph30.3 kmh 30.05 in1017.6 mb 0.00 in0.0 mm 0.00 in0.0 mm 0.04 in1.0 mm
04:55 AM 45.7°F7.6°C 39.6°F4.2°C 79% 13.2 mph S21.2 kmh S 17.9 mph28.8 kmh 30.05 in1017.6 mb 0.00 in0.0 mm 0.00 in0.0 mm 0.04 in1.0 mm
04:50 AM 45.7°F7.6°C 39.6°F4.2°C 79% 7.2 mph S11.6 kmh S 18.1 mph29.1 kmh 30.05 in1017.6 mb 0.00 in0.0 mm 0.00 in0.0 mm 0.04 in1.0 mm
04:45 AM 46.0°F7.8°C 40.3°F4.6°C 80% 12.5 mph S20.1 kmh S 19.5 mph31.4 kmh 30.05 in1017.6 mb 0.00 in0.0 mm 0.00 in0.0 mm 0.04 in1.0 mm
04:40 AM 45.9°F7.7°C 39.8°F4.3°C 79% 13.4 mph S21.6 kmh S 19.5 mph31.4 kmh 30.05 in1017.6 mb 0.00 in0.0 mm 0.00 in0.0 mm 0.04 in1.0 mm
04:35 AM 46.0°F7.8°C 39.9°F4.4°C 79% 6.9 mph S11.1 kmh S 22.4 mph36.0 kmh 30.05 in1017.6 mb 0.00 in0.0 mm 0.00 in0.0 mm 0.04 in1.0 mm
04:30 AM 45.7°F7.6°C 39.6°F4.2°C 79% 9.8 mph S15.8 kmh S 22.4 mph36.0 kmh 30.05 in1017.6 mb 0.00 in0.0 mm 0.00 in0.0 mm 0.04 in1.0 mm
04:25 AM 45.7°F7.6°C 39.6°F4.2°C 79% 3.8 mph S6.1 kmh S 18.8 mph30.3 kmh 30.05 in1017.6 mb 0.00 in0.0 mm 0.00 in0.0 mm 0.04 in1.0 mm
04:20 AM 46.0°F7.8°C 39.9°F4.4°C 79% 18.8 mph S30.3 kmh S 22.8 mph36.7 kmh 30.05 in1017.6 mb 0.00 in0.0 mm 0.00 in0.0 mm 0.04 in1.0 mm
04:15 AM 46.0°F7.8°C 39.9°F4.4°C 79% 14.1 mph S22.7 kmh S 22.8 mph36.7 kmh 30.05 in1017.6 mb 0.00 in0.0 mm 0.00 in0.0 mm 0.04 in1.0 mm
04:10 AM 46.0°F7.8°C 39.9°F4.4°C 79% 9.6 mph S15.4 kmh S 19.0 mph30.6 kmh 30.06 in1017.9 mb 0.00 in0.0 mm 0.00 in0.0 mm 0.04 in1.0 mm
04:05 AM 45.7°F7.6°C 39.6°F4.2°C 79% 7.4 mph S11.9 kmh S 19.0 mph30.6 kmh 30.06 in1017.9 mb 0.00 in0.0 mm 0.00 in0.0 mm 0.04 in1.0 mm
04:00 AM 45.7°F7.6°C 39.9°F4.4°C 80% 12.1 mph S19.5 kmh S 16.3 mph26.2 kmh 30.06 in1017.9 mb 0.00 in0.0 mm 0.00 in0.0 mm 0.04 in1.0 mm
03:55 AM 45.7°F7.6°C 40.2°F4.6°C 81% 2.5 mph SSW4.0 kmh SSW 14.3 mph23.0 kmh 30.06 in1017.9 mb 0.00 in0.0 mm 0.00 in0.0 mm 0.04 in1.0 mm
03:50 AM 45.5°F7.5°C 40.4°F4.7°C 82% 5.1 mph SSW8.2 kmh SSW 14.3 mph23.0 kmh 30.06 in1017.9 mb 0.00 in0.0 mm 0.00 in0.0 mm 0.04 in1.0 mm
03:45 AM 45.3°F7.4°C 40.2°F4.6°C 82% 8.1 mph S13.0 kmh S 13.0 mph20.9 kmh 30.06 in1017.9 mb 0.00 in0.0 mm 0.00 in0.0 mm 0.04 in1.0 mm
03:40 AM 45.3°F7.4°C 40.5°F4.7°C 83% 2.0 mph ESE3.2 kmh ESE 5.1 mph8.2 kmh 30.07 in1018.3 mb 0.00 in0.0 mm 0.00 in0.0 mm 0.04 in1.0 mm
03:35 AM 45.5°F7.5°C 40.7°F4.8°C 83% 1.3 mph ESE2.1 kmh ESE 6.0 mph9.7 kmh 30.07 in1018.3 mb 0.00 in0.0 mm 0.00 in0.0 mm 0.04 in1.0 mm
03:30 AM 45.7°F7.6°C 40.8°F4.9°C 83% 1.8 mph E2.9 kmh E 13.4 mph21.6 kmh 30.07 in1018.3 mb 0.00 in0.0 mm 0.00 in0.0 mm 0.04 in1.0 mm
03:25 AM 45.7°F7.6°C 40.8°F4.9°C 83% 3.6 mph ENE5.8 kmh ENE 13.4 mph21.6 kmh 30.06 in1017.9 mb 0.00 in0.0 mm 0.00 in0.0 mm 0.04 in1.0 mm
03:20 AM 45.7°F7.6°C 41.1°F5.1°C 84% 9.2 mph ENE14.8 kmh ENE 11.6 mph18.7 kmh 30.07 in1018.3 mb 0.00 in0.0 mm 0.00 in0.0 mm 0.04 in1.0 mm
03:15 AM 45.7°F7.6°C 41.1°F5.1°C 84% 2.0 mph ENE3.2 kmh ENE 11.9 mph19.2 kmh 30.08 in1018.6 mb 0.00 in0.0 mm 0.00 in0.0 mm 0.04 in1.0 mm
03:10 AM 45.7°F7.6°C 41.1°F5.1°C 84% 5.1 mph ENE8.2 kmh ENE 11.9 mph19.2 kmh 30.07 in1018.3 mb 0.00 in0.0 mm 0.00 in0.0 mm 0.04 in1.0 mm
03:05 AM 45.7°F7.6°C 41.1°F5.1°C 84% 4.9 mph E7.9 kmh E 5.8 mph9.3 kmh 30.07 in1018.3 mb 0.00 in0.0 mm 0.00 in0.0 mm 0.04 in1.0 mm
03:00 AM 45.9°F7.7°C 41.3°F5.2°C 84% 3.6 mph ENE5.8 kmh ENE 13.4 mph21.6 kmh 30.07 in1018.3 mb 0.00 in0.0 mm 0.00 in0.0 mm 0.04 in1.0 mm
02:55 AM 46.0°F7.8°C 41.5°F5.3°C 84% 1.6 mph E2.6 kmh E 12.8 mph20.6 kmh 30.07 in1018.3 mb 0.00 in0.0 mm 0.00 in0.0 mm 0.04 in1.0 mm
02:50 AM 45.7°F7.6°C 41.1°F5.1°C 84% 2.0 mph E3.2 kmh E 7.4 mph11.9 kmh 30.07 in1018.3 mb 0.00 in0.0 mm 0.00 in0.0 mm 0.04 in1.0 mm
02:45 AM 45.7°F7.6°C 41.1°F5.1°C 84% 1.6 mph SSE2.6 kmh SSE 11.2 mph18.0 kmh 30.07 in1018.3 mb 0.02 in0.5 mm 0.00 in0.0 mm 0.04 in1.0 mm
02:40 AM 45.7°F7.6°C 41.5°F5.3°C 85% Calm Calm 16.6 mph26.7 kmh 30.07 in1018.3 mb 0.02 in0.5 mm 0.00 in0.0 mm 0.04 in1.0 mm
02:35 AM 46.0°F7.8°C 41.8°F5.4°C 85% 3.8 mph NE6.1 kmh NE 16.6 mph26.7 kmh 30.07 in1018.3 mb 0.02 in0.5 mm 0.00 in0.0 mm 0.04 in1.0 mm
02:30 AM 46.0°F7.8°C 42.1°F5.6°C 86% 15.2 mph NE24.5 kmh NE 19.2 mph30.9 kmh 30.06 in1017.9 mb 0.02 in0.5 mm 0.00 in0.0 mm 0.04 in1.0 mm
02:25 AM 46.2°F7.9°C 42.3°F5.7°C 86% 10.7 mph NE17.2 kmh NE 25.1 mph40.4 kmh 30.06 in1017.9 mb 0.02 in0.5 mm 0.00 in0.0 mm 0.04 in1.0 mm
02:20 AM 46.2°F7.9°C 42.0°F5.6°C 85% 15.7 mph NNE25.3 kmh NNE 25.5 mph41.0 kmh 30.06 in1017.9 mb 0.02 in0.5 mm 0.00 in0.0 mm 0.04 in1.0 mm
02:15 AM 46.6°F8.1°C 42.3°F5.7°C 85% 11.6 mph NNE18.7 kmh NNE 25.5 mph41.0 kmh 30.06 in1017.9 mb 0.02 in0.5 mm 0.00 in0.0 mm 0.04 in1.0 mm
02:10 AM 47.1°F8.4°C 42.2°F5.7°C 83% 14.5 mph NE23.3 kmh NE 26.2 mph42.2 kmh 30.05 in1017.6 mb 0.02 in0.5 mm 0.00 in0.0 mm 0.04 in1.0 mm
02:05 AM 47.1°F8.4°C 41.9°F5.5°C 82% 16.1 mph NE25.9 kmh NE 26.2 mph42.2 kmh 30.05 in1017.6 mb 0.02 in0.5 mm 0.00 in0.0 mm 0.04 in1.0 mm
02:00 AM 46.9°F8.3°C 42.0°F5.6°C 83% 17.4 mph NE28.0 kmh NE 20.8 mph33.5 kmh 30.05 in1017.6 mb 0.02 in0.5 mm 0.02 in0.5 mm 0.04 in1.0 mm
01:55 AM 47.1°F8.4°C 42.9°F6.1°C 85% 8.7 mph S14.0 kmh S 8.7 mph14.0 kmh 30.06 in1017.9 mb 0.00 in0.0 mm 0.00 in0.0 mm 0.02 in0.5 mm
01:50 AM 47.3°F8.5°C 43.3°F6.3°C 86% Calm Calm 6.7 mph10.8 kmh 30.05 in1017.6 mb 0.00 in0.0 mm 0.00 in0.0 mm 0.02 in0.5 mm
01:45 AM 47.5°F8.6°C 43.5°F6.4°C 86% 2.0 mph E3.2 kmh E 14.3 mph23.0 kmh 30.05 in1017.6 mb 0.02 in0.5 mm 0.00 in0.0 mm 0.02 in0.5 mm
01:40 AM 47.5°F8.6°C 43.5°F6.4°C 86% 4.9 mph E7.9 kmh E 14.3 mph23.0 kmh 30.07 in1018.3 mb 0.02 in0.5 mm 0.00 in0.0 mm 0.02 in0.5 mm
01:35 AM 47.7°F8.7°C 43.7°F6.5°C 86% 2.2 mph E3.5 kmh E 8.5 mph13.7 kmh 30.07 in1018.3 mb 0.02 in0.5 mm 0.00 in0.0 mm 0.02 in0.5 mm
01:30 AM 47.8°F8.8°C 44.2°F6.8°C 87% 4.3 mph E6.9 kmh E 8.5 mph13.7 kmh 30.07 in1018.3 mb 0.02 in0.5 mm 0.00 in0.0 mm 0.02 in0.5 mm
01:25 AM 48.0°F8.9°C 44.3°F6.8°C 87% 6.7 mph ENE10.8 kmh ENE 8.5 mph13.7 kmh 30.07 in1018.3 mb 0.02 in0.5 mm 0.00 in0.0 mm 0.02 in0.5 mm
01:20 AM 48.0°F8.9°C 44.3°F6.8°C 87% 5.4 mph E8.7 kmh E 7.4 mph11.9 kmh 30.07 in1018.3 mb 0.02 in0.5 mm 0.00 in0.0 mm 0.02 in0.5 mm
01:15 AM 48.2°F9.0°C 44.5°F6.9°C 87% 2.0 mph ESE3.2 kmh ESE 10.3 mph16.6 kmh 30.07 in1018.3 mb 0.02 in0.5 mm 0.00 in0.0 mm 0.02 in0.5 mm
01:10 AM 48.4°F9.1°C 44.7°F7.1°C 87% Calm Calm 10.3 mph16.6 kmh 30.07 in1018.3 mb 0.02 in0.5 mm 0.00 in0.0 mm 0.02 in0.5 mm
01:05 AM 48.6°F9.2°C 44.9°F7.2°C 87% 3.4 mph SSW5.5 kmh SSW 12.8 mph20.6 kmh 30.07 in1018.3 mb 0.02 in0.5 mm 0.00 in0.0 mm 0.02 in0.5 mm
01:00 AM 48.6°F9.2°C 44.9°F7.2°C 87% 8.5 mph S13.7 kmh S 16.1 mph25.9 kmh 30.06 in1017.9 mb 0.02 in0.5 mm 0.00 in0.0 mm 0.02 in0.5 mm
12:55 AM 48.7°F9.3°C 45.3°F7.4°C 88% 6.3 mph S10.1 kmh S 17.4 mph28.0 kmh 30.06 in1017.9 mb 0.02 in0.5 mm 0.00 in0.0 mm 0.02 in0.5 mm
12:50 AM 48.7°F9.3°C 45.3°F7.4°C 88% 17.4 mph SSW28.0 kmh SSW 17.4 mph28.0 kmh 30.06 in1017.9 mb 0.02 in0.5 mm 0.24 in6.1 mm 0.02 in0.5 mm
12:45 AM 48.7°F9.3°C 45.0°F7.2°C 87% 11.9 mph SSW19.2 kmh SSW 16.3 mph26.2 kmh 30.06 in1017.9 mb 0.00 in0.0 mm 0.00 in0.0 mm 0.00 in0.0 mm
12:40 AM 48.7°F9.3°C 45.0°F7.2°C 87% 4.0 mph SSW6.4 kmh SSW 18.8 mph30.3 kmh 30.07 in1018.3 mb 0.00 in0.0 mm 0.00 in0.0 mm 0.00 in0.0 mm
12:35 AM 48.9°F9.4°C 45.2°F7.3°C 87% 9.2 mph S14.8 kmh S 18.8 mph30.3 kmh 30.06 in1017.9 mb 0.00 in0.0 mm 0.00 in0.0 mm 0.00 in0.0 mm
12:30 AM 48.9°F9.4°C 45.2°F7.3°C 87% 8.9 mph S14.3 kmh S 18.1 mph29.1 kmh 30.06 in1017.9 mb 0.00 in0.0 mm 0.00 in0.0 mm 0.00 in0.0 mm
12:25 AM 48.9°F9.4°C 45.2°F7.3°C 87% 13.0 mph SSW20.9 kmh SSW 16.6 mph26.7 kmh 30.07 in1018.3 mb 0.00 in0.0 mm 0.00 in0.0 mm 0.00 in0.0 mm
12:20 AM 48.7°F9.3°C 44.7°F7.1°C 86% 6.7 mph SSW10.8 kmh SSW 14.3 mph23.0 kmh 30.07 in1018.3 mb 0.00 in0.0 mm 0.00 in0.0 mm 0.00 in0.0 mm
12:15 AM 48.7°F9.3°C 44.7°F7.1°C 86% 10.5 mph SSW16.9 kmh SSW 13.0 mph20.9 kmh 30.07 in1018.3 mb 0.00 in0.0 mm 0.00 in0.0 mm 0.00 in0.0 mm
12:10 AM 48.7°F9.3°C 44.7°F7.1°C 86% 11.0 mph SSW17.7 kmh SSW 11.4 mph18.3 kmh 30.07 in1018.3 mb 0.00 in0.0 mm 0.00 in0.0 mm 0.00 in0.0 mm
12:05 AM 48.9°F9.4°C 44.9°F7.2°C 86% 8.5 mph SSW13.7 kmh SSW 17.2 mph27.7 kmh 30.07 in1018.3 mb 0.00 in0.0 mm 0.00 in0.0 mm 0.00 in0.0 mm
12:00 AM 48.9°F9.4°C 44.9°F7.2°C 86% 9.6 mph SSW15.4 kmh SSW 17.2 mph27.7 kmh 30.07 in1018.3 mb 0.00 in0.0 mm 0.00 in0.0 mm 0.00 in0.0 mm